Time;durP1;ratioP1;P1;durP2;ratioP2;P2;SDS_P1;SDS_P2;PMS_P1;PMS_P2;Temp;Humidity;BMP_temperature;BMP_pressure;BME280_temperature;BME280_humidity;BME280_pressure;Samples;Min_cycle;Max_cycle;Signal;HPM_P1;HPM_P2
2022/07/25 00:00:28;;;;;;;6.95;2.40;;;23.00;99.90;;;;;;4931519;29;20050;-90
2022/07/25 00:02:54;;;;;;;6.57;2.55;;;23.00;99.90;;;;;;4949561;28;20043;-90
2022/07/25 00:05:20;;;;;;;7.18;2.60;;;23.00;99.90;;;;;;4932990;28;20039;-89
2022/07/25 00:07:46;;;;;;;7.03;2.50;;;23.00;99.90;;;;;;4900584;29;20035;-89
2022/07/25 00:10:12;;;;;;;6.53;2.45;;;22.80;99.90;;;;;;4931843;29;20031;-90
2022/07/25 00:12:38;;;;;;;6.05;2.58;;;23.00;99.90;;;;;;4931160;29;20515;-89
2022/07/25 00:15:04;;;;;;;8.10;2.90;;;23.00;99.90;;;;;;4949149;28;20106;-89
2022/07/25 00:17:30;;;;;;;6.63;2.78;;;23.00;99.90;;;;;;4933020;29;20078;-89
2022/07/25 00:19:56;;;;;;;7.22;2.70;;;22.90;99.90;;;;;;4917033;29;20032;-90
2022/07/25 00:22:21;;;;;;;7.85;3.08;;;22.90;99.90;;;;;;4912073;28;20056;-90
2022/07/25 00:24:47;;;;;;;7.22;2.70;;;22.90;99.90;;;;;;4947144;28;20109;-89
2022/07/25 00:27:13;;;;;;;7.25;2.92;;;22.90;99.90;;;;;;4933211;28;20097;-90
2022/07/25 00:29:39;;;;;;;10.80;3.13;;;22.90;99.90;;;;;;4951117;28;20043;-90
2022/07/25 00:32:05;;;;;;;8.35;3.25;;;22.90;99.90;;;;;;4941528;28;20043;-90
2022/07/25 00:34:30;;;;;;;7.47;3.08;;;22.90;99.90;;;;;;4938767;28;20050;-89
2022/07/25 00:36:56;;;;;;;8.00;3.10;;;22.90;99.90;;;;;;4954155;28;20043;-89
2022/07/25 00:39:22;;;;;;;7.60;3.30;;;22.90;99.90;;;;;;4938102;28;20082;-89
2022/07/25 00:41:48;;;;;;;8.05;3.10;;;22.90;99.90;;;;;;4955256;28;20125;-89
2022/07/25 00:44:28;;;;;;;8.65;3.50;;;22.90;99.90;;;;;;4937497;28;20058;-89
2022/07/25 00:46:54;;;;;;;7.38;3.30;;;22.90;99.90;;;;;;4952835;28;20045;-90
2022/07/25 00:49:20;;;;;;;8.13;3.50;;;22.80;99.90;;;;;;4971121;28;20035;-90
2022/07/25 00:51:47;;;;;;;9.48;3.80;;;22.80;99.90;;;;;;4953182;28;20043;-90
2022/07/25 00:54:13;;;;;;;8.07;3.58;;;22.80;99.90;;;;;;4952889;28;20038;-89
2022/07/25 00:56:40;;;;;;;9.30;3.22;;;22.70;99.90;;;;;;4954990;28;20071;-88
2022/07/25 00:59:06;;;;;;;8.35;3.53;;;22.70;99.90;;;;;;4954706;28;20042;-89
2022/07/25 01:01:32;;;;;;;7.75;3.55;;;22.60;99.90;;;;;;4971359;28;20079;-90
2022/07/25 01:03:58;;;;;;;8.75;3.67;;;22.60;99.90;;;;;;4974634;28;20474;-89
2022/07/25 01:06:25;;;;;;;8.38;3.63;;;22.60;99.90;;;;;;4920755;28;20039;-89
2022/07/25 01:08:51;;;;;;;8.80;3.90;;;22.50;99.90;;;;;;4969703;28;20129;-90
2022/07/25 01:11:17;;;;;;;8.85;4.03;;;22.50;99.90;;;;;;4937199;28;20039;-90
2022/07/25 01:13:42;;;;;;;8.48;4.03;;;22.50;99.90;;;;;;4951795;28;20757;-89
2022/07/25 01:16:08;;;;;;;9.60;4.50;;;22.40;99.90;;;;;;4955538;28;20050;-90
2022/07/25 01:18:34;;;;;;;8.60;4.60;;;22.40;99.90;;;;;;4951819;28;20047;-89
2022/07/25 01:21:00;;;;;;;13.52;5.30;;;22.40;99.90;;;;;;4954314;28;20050;-89
2022/07/25 01:23:26;;;;;;;9.90;4.78;;;22.30;99.90;;;;;;4953871;28;20046;-90
2022/07/25 01:25:52;;;;;;;9.60;4.72;;;22.30;99.90;;;;;;4953521;28;20046;-90
2022/07/25 01:28:18;;;;;;;8.88;4.60;;;22.30;99.90;;;;;;4953869;28;20038;-89
2022/07/25 01:30:44;;;;;;;10.40;4.55;;;22.20;99.90;;;;;;4938607;28;20063;-89
2022/07/25 01:33:15;;;;;;;10.98;5.03;;;22.20;99.90;;;;;;4954435;28;20042;-90
2022/07/25 01:35:41;;;;;;;10.35;5.40;;;22.20;99.90;;;;;;4937653;28;20051;-89
2022/07/25 01:38:07;;;;;;;9.55;5.03;;;22.10;99.90;;;;;;4954142;28;20488;-90
2022/07/25 01:40:33;;;;;;;9.90;5.28;;;22.10;99.90;;;;;;4937568;28;20050;-89
2022/07/25 01:42:59;;;;;;;9.95;5.18;;;22.10;99.90;;;;;;4936292;28;20526;-89
2022/07/25 01:45:27;;;;;;;12.07;5.82;;;22.10;99.90;;;;;;4934861;28;20053;-90
2022/07/25 01:47:53;;;;;;;10.90;6.10;;;22.00;99.90;;;;;;4938870;28;20039;-88
2022/07/25 01:50:19;;;;;;;9.73;5.47;;;22.00;99.90;;;;;;4936906;28;20100;-89
2022/07/25 01:52:45;;;;;;;10.98;6.40;;;22.00;99.90;;;;;;4926688;28;20393;-90
2022/07/25 01:55:11;;;;;;;10.57;5.63;;;22.00;99.90;;;;;;4951066;28;20098;-89
2022/07/25 01:57:38;;;;;;;11.52;5.90;;;21.90;99.90;;;;;;4954003;28;20125;-89
2022/07/25 02:00:06;;;;;;;10.52;6.28;;;21.90;99.90;;;;;;4935654;28;20049;-89
2022/07/25 02:02:32;;;;;;;11.52;6.43;;;21.90;99.90;;;;;;4953846;28;20053;-89
2022/07/25 02:04:58;;;;;;;11.63;6.45;;;21.80;99.90;;;;;;4968357;28;20047;-89
2022/07/25 02:07:23;;;;;;;10.18;6.07;;;21.80;99.90;;;;;;4953304;28;20492;-90
2022/07/25 02:09:49;;;;;;;11.50;6.35;;;21.70;99.90;;;;;;4952751;28;20031;-88
2022/07/25 02:12:15;;;;;;;12.40;6.30;;;21.70;99.90;;;;;;4952436;28;20054;-89
2022/07/25 02:14:40;;;;;;;12.68;6.50;;;21.70;99.90;;;;;;4919872;28;20121;-89
2022/07/25 02:17:06;;;;;;;13.32;6.60;;;21.60;99.90;;;;;;4936636;28;20047;-89
2022/07/25 02:19:33;;;;;;;10.77;6.50;;;21.60;99.90;;;;;;4921265;28;20039;-90
2022/07/25 02:21:58;;;;;;;14.60;6.85;;;21.60;99.90;;;;;;4969003;28;20097;-89
2022/07/25 02:24:24;;;;;;;10.57;6.47;;;21.60;99.90;;;;;;4953319;28;20046;-89
2022/07/25 02:26:50;;;;;;;11.13;6.13;;;21.50;99.90;;;;;;4935477;28;20093;-88
2022/07/25 02:29:15;;;;;;;11.98;6.82;;;21.50;99.90;;;;;;4953033;28;20612;-90
2022/07/25 02:31:41;;;;;;;11.50;6.03;;;21.50;99.90;;;;;;4952796;28;20121;-89
2022/07/25 02:34:07;;;;;;;10.52;6.45;;;21.50;99.90;;;;;;4937117;28;20057;-89
2022/07/25 02:36:33;;;;;;;12.43;6.35;;;21.40;99.90;;;;;;4951594;28;20034;-89
2022/07/25 02:38:58;;;;;;;10.85;6.35;;;21.40;99.90;;;;;;4920029;28;20052;-89
2022/07/25 02:41:24;;;;;;;10.80;6.25;;;21.40;99.90;;;;;;4937436;28;20753;-89
2022/07/25 02:43:50;;;;;;;11.90;7.15;;;21.40;99.90;;;;;;4933406;29;20039;-89
2022/07/25 02:46:16;;;;;;;12.38;6.88;;;21.40;99.90;;;;;;4967964;28;20263;-88
2022/07/25 02:48:41;;;;;;;12.27;6.10;;;21.40;99.90;;;;;;4967989;28;20039;-89
2022/07/25 02:51:07;;;;;;;11.55;6.15;;;21.30;99.90;;;;;;4940180;28;20500;-89
2022/07/25 02:53:33;;;;;;;10.75;6.35;;;21.30;99.90;;;;;;4938730;28;20508;-88
2022/07/25 02:55:59;;;;;;;10.63;5.50;;;21.30;99.90;;;;;;4941492;28;20081;-88
2022/07/25 02:58:25;;;;;;;10.98;5.95;;;21.30;99.90;;;;;;4961791;28;20118;-88
2022/07/25 03:00:50;;;;;;;11.85;5.95;;;21.20;99.90;;;;;;4978149;28;20038;-88
2022/07/25 03:03:16;;;;;;;10.10;5.80;;;21.20;99.90;;;;;;4936036;28;20042;-88
2022/07/25 03:05:42;;;;;;;9.82;5.70;;;21.20;99.90;;;;;;4936805;28;20046;-89
2022/07/25 03:08:07;;;;;;;10.20;5.70;;;21.20;99.90;;;;;;4959172;28;20042;-89
2022/07/25 03:10:35;;;;;;;10.52;6.15;;;21.20;99.90;;;;;;4920420;28;20039;-89
2022/07/25 03:13:01;;;;;;;9.93;6.03;;;21.20;99.90;;;;;;4952670;28;20039;-88
2022/07/25 03:15:26;;;;;;;11.05;5.70;;;21.10;99.90;;;;;;4951408;28;20122;-88
2022/07/25 03:17:52;;;;;;;11.05;5.90;;;21.20;99.90;;;;;;4951746;28;20118;-88
2022/07/25 03:20:18;;;;;;;9.85;5.75;;;21.10;99.90;;;;;;4967637;28;20042;-88
2022/07/25 03:22:44;;;;;;;10.07;5.57;;;21.20;99.90;;;;;;4935302;28;20122;-89
2022/07/25 03:25:10;;;;;;;9.82;5.70;;;21.10;99.90;;;;;;4948725;28;20046;-88
2022/07/25 03:27:36;;;;;;;10.40;5.80;;;21.10;99.90;;;;;;4936132;28;20035;-88
2022/07/25 03:30:02;;;;;;;11.73;6.07;;;21.10;99.90;;;;;;4935798;28;20061;-88
2022/07/25 03:32:27;;;;;;;10.75;6.30;;;21.10;99.90;;;;;;4968582;28;20530;-88
2022/07/25 03:34:53;;;;;;;10.70;5.78;;;21.10;99.90;;;;;;4935224;28;20034;-88
2022/07/25 03:37:19;;;;;;;10.60;5.88;;;21.10;99.90;;;;;;4953421;28;20050;-88
2022/07/25 03:39:44;;;;;;;9.55;5.38;;;21.10;99.90;;;;;;4946458;28;20113;-88
2022/07/25 03:42:11;;;;;;;11.40;6.15;;;21.10;99.90;;;;;;4951564;28;20137;-88
2022/07/25 03:44:36;;;;;;;10.00;6.18;;;21.10;99.90;;;;;;4950609;28;20185;-88
2022/07/25 03:47:03;;;;;;;10.18;6.10;;;21.00;99.90;;;;;;4951472;28;20374;-87
2022/07/25 03:49:29;;;;;;;12.40;6.65;;;21.00;99.90;;;;;;4950922;28;20046;-88
2022/07/25 03:51:54;;;;;;;10.70;6.07;;;21.00;99.90;;;;;;4936338;28;20069;-88
2022/07/25 03:54:20;;;;;;;10.75;5.85;;;21.00;99.90;;;;;;4935693;28;20431;-88
2022/07/25 03:56:50;;;;;;;10.52;6.32;;;21.00;99.90;;;;;;4953365;28;20068;-89
2022/07/25 03:59:18;;;;;;;10.75;6.20;;;21.00;99.90;;;;;;4951232;28;20125;-87
2022/07/25 04:01:46;;;;;;;10.80;5.85;;;20.90;99.90;;;;;;4966499;28;20134;-88
2022/07/25 04:04:12;;;;;;;11.48;5.82;;;20.90;99.90;;;;;;4952131;28;20033;-88
2022/07/25 04:06:39;;;;;;;10.48;6.10;;;20.90;99.90;;;;;;4971808;28;20042;-88
2022/07/25 04:09:07;;;;;;;12.18;6.47;;;20.90;99.90;;;;;;4954319;28;20038;-88
2022/07/25 04:11:34;;;;;;;11.50;6.28;;;20.90;99.90;;;;;;4969861;28;20053;-88
2022/07/25 04:14:01;;;;;;;10.98;6.53;;;20.90;99.90;;;;;;4936825;28;20522;-88
2022/07/25 04:16:27;;;;;;;12.00;6.57;;;20.90;99.90;;;;;;4954203;28;20053;-88
2022/07/25 04:18:53;;;;;;;10.95;6.35;;;20.90;99.90;;;;;;4939427;28;20496;-89
2022/07/25 04:21:19;;;;;;;11.82;6.80;;;20.90;99.90;;;;;;4939421;28;20047;-88
2022/07/25 04:23:45;;;;;;;11.77;7.28;;;20.90;99.90;;;;;;4954359;28;20070;-88
2022/07/25 04:26:11;;;;;;;12.68;7.18;;;20.90;99.90;;;;;;4940354;28;20118;-88
2022/07/25 04:28:37;;;;;;;14.68;7.18;;;20.90;99.90;;;;;;4961107;28;20101;-88
2022/07/25 04:31:02;;;;;;;12.27;7.00;;;20.90;99.90;;;;;;4938644;28;20123;-88
2022/07/25 04:33:28;;;;;;;12.43;6.75;;;20.90;99.90;;;;;;4938112;28;20070;-88
2022/07/25 04:35:54;;;;;;;10.95;6.95;;;20.90;99.90;;;;;;4939689;28;20039;-88
2022/07/25 04:38:19;;;;;;;14.65;7.03;;;20.90;99.90;;;;;;4953708;28;20065;-88
2022/07/25 04:40:46;;;;;;;11.25;7.30;;;21.00;99.90;;;;;;4955415;28;20125;-88
2022/07/25 04:43:11;;;;;;;12.80;7.25;;;21.00;99.90;;;;;;4955360;28;20035;-88
2022/07/25 04:45:37;;;;;;;12.05;7.00;;;21.00;99.90;;;;;;4953643;28;20120;-88
2022/07/25 04:48:03;;;;;;;10.82;6.85;;;21.10;99.90;;;;;;4955236;28;20473;-88
2022/07/25 04:50:29;;;;;;;11.73;6.88;;;21.10;99.90;;;;;;4969134;28;20174;-89
2022/07/25 04:52:55;;;;;;;10.80;6.70;;;21.30;99.90;;;;;;4951640;28;20509;-88
2022/07/25 04:55:21;;;;;;;12.93;7.43;;;21.30;99.90;;;;;;4951966;28;20138;-89
2022/07/25 04:57:46;;;;;;;13.15;7.53;;;21.30;99.90;;;;;;4972110;28;20035;-89
2022/07/25 05:00:13;;;;;;;12.90;7.38;;;21.40;99.90;;;;;;4953967;28;20101;-89
2022/07/25 05:02:39;;;;;;;12.55;7.65;;;21.40;99.90;;;;;;4946167;28;20053;-90
2022/07/25 05:05:07;;;;;;;12.73;7.35;;;21.40;99.90;;;;;;4953819;28;20491;-89
2022/07/25 05:07:33;;;;;;;11.68;7.18;;;21.40;99.90;;;;;;4939092;28;20070;-89
2022/07/25 05:09:59;;;;;;;12.45;7.13;;;21.40;99.90;;;;;;4922525;28;20534;-89
2022/07/25 05:12:24;;;;;;;12.18;7.18;;;21.40;99.90;;;;;;4954580;28;20074;-88
2022/07/25 05:14:50;;;;;;;12.20;7.18;;;21.50;99.90;;;;;;4952944;28;20073;-89
2022/07/25 05:17:16;;;;;;;12.25;6.93;;;21.50;99.90;;;;;;4936582;28;20093;-89
2022/07/25 05:19:42;;;;;;;12.65;6.88;;;21.50;99.90;;;;;;4937375;28;20039;-89
2022/07/25 05:22:07;;;;;;;13.75;7.43;;;21.60;99.90;;;;;;4936044;28;20129;-89
2022/07/25 05:24:36;;;;;;;11.23;7.20;;;21.50;99.90;;;;;;4967439;28;20050;-88
2022/07/25 05:27:03;;;;;;;11.55;6.60;;;21.70;99.90;;;;;;4939101;28;20046;-89
2022/07/25 05:29:29;;;;;;;11.70;6.82;;;21.70;99.90;;;;;;4971214;28;20045;-90
2022/07/25 05:31:55;;;;;;;10.85;6.95;;;21.80;99.90;;;;;;4954380;28;20221;-89
2022/07/25 05:34:21;;;;;;;12.20;7.45;;;21.80;99.90;;;;;;4935881;28;20042;-89
2022/07/25 05:36:47;;;;;;;12.15;6.93;;;21.80;99.90;;;;;;4953398;28;20117;-89
2022/07/25 05:39:13;;;;;;;12.98;7.03;;;21.90;99.90;;;;;;4955656;28;20494;-89
2022/07/25 05:41:39;;;;;;;16.52;7.03;;;21.90;99.90;;;;;;4955549;28;20504;-89
2022/07/25 05:44:04;;;;;;;12.27;7.05;;;21.90;99.90;;;;;;4970617;28;20263;-88
2022/07/25 05:46:34;;;;;;;11.70;7.32;;;21.90;99.90;;;;;;4940032;28;20381;-88
2022/07/25 05:49:00;;;;;;;13.27;7.55;;;21.90;99.90;;;;;;4971197;28;20090;-89
2022/07/25 05:51:26;;;;;;;12.68;7.68;;;22.00;99.90;;;;;;4971458;28;20042;-88
2022/07/25 05:53:52;;;;;;;13.95;8.02;;;22.00;99.90;;;;;;4971528;28;20057;-89
2022/07/25 05:56:18;;;;;;;14.05;8.13;;;22.00;99.90;;;;;;4954306;28;20127;-89
2022/07/25 05:58:44;;;;;;;11.40;7.45;;;22.00;99.90;;;;;;4955180;28;20042;-89
2022/07/25 06:01:14;;;;;;;11.70;7.40;;;22.10;99.90;;;;;;4947763;28;20395;-89
2022/07/25 06:03:41;;;;;;;13.23;7.80;;;22.10;99.90;;;;;;4969494;28;20035;-89
2022/07/25 06:06:07;;;;;;;12.57;7.68;;;22.20;99.90;;;;;;4923814;28;20050;-88
2022/07/25 06:08:34;;;;;;;12.57;7.55;;;22.20;99.90;;;;;;4963034;28;20050;-87
2022/07/25 06:11:02;;;;;;;10.48;6.50;;;22.20;99.90;;;;;;4950274;28;20046;-89
2022/07/25 06:13:31;;;;;;;13.30;7.30;;;22.30;99.90;;;;;;4967183;28;20076;-90
2022/07/25 06:15:57;;;;;;;13.07;7.05;;;22.40;99.90;;;;;;4954919;28;20579;-91
2022/07/25 06:18:24;;;;;;;12.77;7.28;;;22.50;99.90;;;;;;4948110;28;20407;-90
2022/07/25 06:20:50;;;;;;;10.35;6.88;;;22.50;99.90;;;;;;4945305;28;20042;-91
2022/07/25 06:23:16;;;;;;;12.85;7.30;;;22.60;99.90;;;;;;4949439;28;20122;-92
2022/07/25 06:25:42;;;;;;;10.77;6.82;;;22.60;99.90;;;;;;4956720;28;20097;-91
2022/07/25 06:28:08;;;;;;;11.57;7.53;;;22.70;99.90;;;;;;4935730;28;20050;-89
2022/07/25 06:30:34;;;;;;;13.02;7.25;;;22.70;99.90;;;;;;4953190;28;20038;-88
2022/07/25 06:33:00;;;;;;;12.10;7.55;;;22.70;99.90;;;;;;4941562;28;20058;-90
2022/07/25 06:35:25;;;;;;;13.27;7.60;;;22.80;99.90;;;;;;4937113;28;20088;-91
2022/07/25 06:37:51;;;;;;;11.68;7.28;;;22.80;99.90;;;;;;4938270;28;20067;-89
2022/07/25 06:40:17;;;;;;;12.00;7.43;;;22.80;99.90;;;;;;4953168;28;20046;-90
2022/07/25 06:42:45;;;;;;;12.30;8.02;;;22.80;99.90;;;;;;4953796;28;20500;-91
2022/07/25 06:45:12;;;;;;;11.98;7.65;;;22.80;99.90;;;;;;4968310;28;20106;-87
2022/07/25 06:47:39;;;;;;;13.60;8.10;;;22.80;99.90;;;;;;4966732;28;20061;-90
2022/07/25 06:50:06;;;;;;;14.82;7.55;;;22.90;99.90;;;;;;4958015;28;20043;-89
2022/07/25 06:52:32;;;;;;;13.65;8.15;;;23.00;99.90;;;;;;4948254;28;20043;-89
2022/07/25 06:54:58;;;;;;;13.45;7.55;;;23.20;99.90;;;;;;4959628;28;20050;-88
2022/07/25 06:57:24;;;;;;;15.02;7.40;;;23.40;99.90;;;;;;4936953;28;20503;-91
2022/07/25 06:59:50;;;;;;;12.23;7.85;;;23.70;99.90;;;;;;4930337;28;20514;-92
2022/07/25 07:02:15;;;;;;;12.30;8.20;;;23.90;99.90;;;;;;4934886;28;20101;-90
2022/07/25 07:04:41;;;;;;;13.50;8.38;;;24.10;99.90;;;;;;4937754;28;20294;-90
2022/07/25 07:07:07;;;;;;;12.00;7.60;;;24.30;99.90;;;;;;4934073;28;20053;-92
2022/07/25 07:09:33;;;;;;;12.15;7.60;;;24.50;99.90;;;;;;4951587;28;20039;-91
2022/07/25 07:11:58;;;;;;;13.02;7.90;;;24.60;99.90;;;;;;4938179;28;20109;-91
2022/07/25 07:14:24;;;;;;;11.68;7.30;;;24.60;99.90;;;;;;4968267;28;20031;-91
2022/07/25 07:16:50;;;;;;;12.48;7.93;;;24.60;99.90;;;;;;4966170;28;20054;-90
2022/07/25 07:19:16;;;;;;;12.57;7.25;;;24.60;99.90;;;;;;4949816;28;20121;-89
2022/07/25 07:21:42;;;;;;;12.88;8.25;;;24.40;99.90;;;;;;4935532;28;20042;-90
2022/07/25 07:24:08;;;;;;;12.13;7.78;;;24.40;99.90;;;;;;4968051;28;20285;-88
2022/07/25 07:26:34;;;;;;;12.02;7.53;;;24.30;99.90;;;;;;4952854;28;20067;-90
2022/07/25 07:29:01;;;;;;;12.30;7.85;;;24.30;99.90;;;;;;4941728;28;20530;-91
2022/07/25 07:31:27;;;;;;;12.90;7.95;;;24.50;99.90;;;;;;4935208;28;20479;-91
2022/07/25 07:33:53;;;;;;;12.45;7.15;;;24.60;99.90;;;;;;4936321;28;20093;-91
2022/07/25 07:36:19;;;;;;;13.15;8.30;;;24.60;99.90;;;;;;4921515;28;20466;-92
2022/07/25 07:38:45;;;;;;;12.18;7.43;;;24.50;99.90;;;;;;4950390;28;20118;-89
2022/07/25 07:41:11;;;;;;;11.20;7.28;;;24.50;99.90;;;;;;4951851;28;20724;-90
2022/07/25 07:43:37;;;;;;;12.30;7.32;;;24.50;99.90;;;;;;4950539;28;20065;-89
2022/07/25 07:46:03;;;;;;;12.20;7.90;;;24.50;99.90;;;;;;4951550;28;20484;-91
2022/07/25 07:48:32;;;;;;;12.30;7.32;;;24.50;99.90;;;;;;4920651;28;20114;-88
2022/07/25 07:50:59;;;;;;;12.77;7.75;;;24.50;99.90;;;;;;4952183;28;20057;-89
2022/07/25 07:56:10;;;;;;;11.43;6.93;;;24.60;99.90;;;;;;4968622;28;20046;-91
2022/07/25 07:58:36;;;;;;;11.20;6.97;;;24.60;99.90;;;;;;4934922;28;20129;-90
2022/07/25 08:01:02;;;;;;;11.88;6.45;;;24.80;99.90;;;;;;4951974;28;20126;-90
2022/07/25 08:03:28;;;;;;;12.25;6.30;;;24.80;99.90;;;;;;4948321;28;20043;-90
2022/07/25 08:05:56;;;;;;;10.90;5.90;;;24.90;99.90;;;;;;4935864;28;20039;-91
2022/07/25 08:08:22;;;;;;;10.68;5.80;;;24.80;99.90;;;;;;4921156;28;20106;-88
2022/07/25 08:10:48;;;;;;;11.50;5.95;;;24.80;99.90;;;;;;4933079;28;20065;-89
2022/07/25 08:13:23;;;;;;;10.88;5.53;;;24.70;99.90;;;;;;4947826;28;20074;-90
2022/07/25 08:15:51;;;;;;;10.95;5.78;;;24.70;99.90;;;;;;4953025;28;20077;-92
2022/07/25 08:18:18;;;;;;;10.10;5.47;;;24.70;99.90;;;;;;4950049;28;20067;-91
2022/07/25 08:20:47;;;;;;;12.38;5.40;;;24.70;99.90;;;;;;4946910;28;20121;-90
2022/07/25 08:23:14;;;;;;;9.93;5.38;;;24.60;99.90;;;;;;4966277;28;20062;-91
2022/07/25 08:25:40;;;;;;;10.82;5.30;;;24.60;99.90;;;;;;4950580;28;20389;-91
2022/07/25 08:28:06;;;;;;;10.05;5.03;;;24.60;99.90;;;;;;4934535;28;20093;-92
2022/07/25 08:30:32;;;;;;;10.98;5.28;;;24.50;99.90;;;;;;4968412;28;20039;-91
2022/07/25 08:33:04;;;;;;;11.98;5.32;;;24.60;99.90;;;;;;4951847;28;20042;-89
2022/07/25 08:35:31;;;;;;;9.70;5.15;;;24.50;99.90;;;;;;4952122;28;20365;-91
2022/07/25 08:37:58;;;;;;;11.07;4.80;;;24.60;99.90;;;;;;4952034;28;20042;-91
2022/07/25 08:40:25;;;;;;;10.38;4.63;;;24.70;99.90;;;;;;4951574;28;20042;-92
2022/07/25 08:42:53;;;;;;;10.93;5.50;;;24.70;99.90;;;;;;4936117;28;20582;-89
2022/07/25 08:45:20;;;;;;;9.55;5.03;;;24.60;99.90;;;;;;4948950;28;20097;-91
2022/07/25 08:47:48;;;;;;;10.07;4.82;;;24.60;99.90;;;;;;4945459;28;20038;-91
2022/07/25 08:50:17;;;;;;;10.18;4.85;;;24.40;99.90;;;;;;4949889;28;20066;-88
2022/07/25 08:52:44;;;;;;;9.90;4.60;;;24.30;99.90;;;;;;4944253;28;20043;-89
2022/07/25 08:55:18;;;;;;;10.00;4.65;;;24.10;99.90;;;;;;4955036;28;20050;-90
2022/07/25 08:57:46;;;;;;;10.38;4.95;;;24.10;99.90;;;;;;4974789;28;20050;-89
2022/07/25 09:00:23;;;;;;;10.55;4.85;;;24.00;99.90;;;;;;4968103;28;20039;-89
2022/07/25 09:03:02;;;;;;;9.45;4.80;;;24.00;99.90;;;;;;4952785;28;20062;-90
2022/07/25 09:05:30;;;;;;;10.02;5.18;;;23.90;99.90;;;;;;4939797;28;20043;-89
2022/07/25 09:07:57;;;;;;;9.45;4.88;;;24.00;99.90;;;;;;4954392;28;20039;-90
2022/07/25 09:10:25;;;;;;;15.50;5.45;;;24.00;99.90;;;;;;4954653;28;20035;-91
2022/07/25 09:12:57;;;;;;;12.30;5.10;;;24.10;99.90;;;;;;4938145;28;20039;-90
2022/07/25 09:15:37;;;;;;;10.60;4.80;;;24.10;99.90;;;;;;4953616;28;20043;-89
2022/07/25 09:18:09;;;;;;;10.00;4.65;;;24.10;99.90;;;;;;4951717;28;20305;-88
2022/07/25 09:20:43;;;;;;;10.57;5.07;;;24.20;99.90;;;;;;4968848;28;20555;-90
2022/07/25 09:23:32;;;;;;;9.60;5.07;;;24.20;99.90;;;;;;4952778;28;20051;-88
2022/07/25 09:26:06;;;;;;;9.73;5.05;;;24.30;99.90;;;;;;4947508;28;20278;-88
2022/07/25 09:28:38;;;;;;;10.02;5.15;;;24.30;99.90;;;;;;4952462;28;20046;-88
2022/07/25 09:31:04;;;;;;;11.30;4.45;;;24.40;99.90;;;;;;4954546;28;20133;-87
2022/07/25 09:33:31;;;;;;;9.63;3.88;;;24.70;99.90;;;;;;4954832;28;20129;-90
2022/07/25 09:35:56;;;;;;;8.43;3.63;;;24.80;99.90;;;;;;4954194;28;20053;-86
2022/07/25 09:38:23;;;;;;;8.05;3.42;;;24.90;99.90;;;;;;4952443;28;20038;-89
2022/07/25 09:41:00;;;;;;;8.68;3.58;;;25.00;99.90;;;;;;4950844;28;20167;-89
2022/07/25 09:43:39;;;;;;;9.98;3.10;;;25.00;99.90;;;;;;4954863;28;20070;-89
2022/07/25 09:46:06;;;;;;;8.95;3.15;;;25.10;99.90;;;;;;4938265;28;20582;-91
2022/07/25 09:48:32;;;;;;;9.43;3.20;;;25.20;99.90;;;;;;4939100;28;20090;-90
2022/07/25 09:50:59;;;;;;;7.97;3.50;;;25.30;99.90;;;;;;4934319;28;20052;-90
2022/07/25 09:53:25;;;;;;;10.40;3.00;;;25.40;99.90;;;;;;4953106;28;20523;-88
2022/07/25 09:55:55;;;;;;;6.90;2.33;;;25.40;99.90;;;;;;4935071;29;20115;-89
2022/07/25 09:58:22;;;;;;;7.78;2.42;;;25.50;99.90;;;;;;4938038;28;20646;-85
2022/07/25 10:00:49;;;;;;;5.72;2.35;;;25.60;99.90;;;;;;4967792;28;20403;-88
2022/07/25 10:03:45;;;;;;;7.43;2.40;;;25.60;99.90;;;;;;4952734;28;20035;-87
2022/07/25 10:06:19;;;;;;;7.80;2.30;;;25.70;99.90;;;;;;4967710;28;20119;-87
2022/07/25 10:08:46;;;;;;;6.15;2.13;;;25.70;99.90;;;;;;4954527;28;20527;-89
2022/07/25 10:11:24;;;;;;;5.55;2.10;;;25.60;99.90;;;;;;4952795;28;20172;-91
2022/07/25 10:13:51;;;;;;;6.55;1.95;;;25.60;99.90;;;;;;4945611;28;20042;-90
2022/07/25 10:16:19;;;;;;;5.80;2.00;;;25.80;99.90;;;;;;4932345;28;20671;-89
2022/07/25 10:18:54;;;;;;;6.78;2.15;;;25.90;99.90;;;;;;4963987;28;20042;-90
2022/07/25 10:21:21;;;;;;;5.90;1.92;;;26.00;99.90;;;;;;4970249;28;20039;-90
2022/07/25 10:24:16;;;;;;;6.47;2.03;;;26.00;99.90;;;;;;4977252;28;20061;-88
2022/07/25 10:26:51;;;;;;;4.47;1.73;;;25.80;99.90;;;;;;4958182;28;20042;-89
2022/07/25 10:29:17;;;;;;;7.25;2.10;;;25.60;99.90;;;;;;4967066;28;20136;-87
2022/07/25 10:31:46;;;;;;;6.45;1.73;;;25.30;99.90;;;;;;4970634;28;20075;-89
2022/07/25 10:34:13;;;;;;;4.88;1.88;;;25.10;99.90;;;;;;4969080;28;20059;-89
2022/07/25 10:36:44;;;;;;;4.97;1.77;;;24.90;99.90;;;;;;4937784;28;20146;-89
2022/07/25 10:39:13;;;;;;;6.90;2.25;;;24.70;99.90;;;;;;4953930;28;20046;-90
2022/07/25 10:41:41;;;;;;;7.60;2.10;;;24.40;99.90;;;;;;4954163;28;20047;-89
2022/07/25 10:44:14;;;;;;;7.63;2.10;;;24.30;99.90;;;;;;4954490;28;20045;-90
2022/07/25 10:46:44;;;;;;;5.97;1.95;;;24.20;99.90;;;;;;4944303;28;20043;-89
2022/07/25 10:49:19;;;;;;;6.55;2.15;;;24.10;99.90;;;;;;4960735;28;20122;-89
2022/07/25 10:51:55;;;;;;;7.43;2.03;;;24.30;99.90;;;;;;4962153;28;20049;-88
2022/07/25 10:54:21;;;;;;;8.07;2.20;;;24.40;99.90;;;;;;4979692;28;20886;-89
2022/07/25 10:56:56;;;;;;;8.98;2.45;;;24.40;99.90;;;;;;4948475;28;20045;-90
2022/07/25 10:59:36;;;;;;;5.78;1.90;;;24.30;99.90;;;;;;4966263;28;20125;-89
2022/07/25 11:02:05;;;;;;;6.60;2.30;;;24.20;99.90;;;;;;4946845;28;20078;-90
2022/07/25 11:04:32;;;;;;;6.88;2.15;;;24.00;99.90;;;;;;4967278;28;20542;-90
2022/07/25 11:07:07;;;;;;;6.57;2.20;;;23.90;99.90;;;;;;4950301;28;20035;-90
2022/07/25 11:09:33;;;;;;;6.85;2.40;;;23.80;99.90;;;;;;4950657;28;20125;-87
2022/07/25 11:11:59;;;;;;;5.82;2.10;;;23.70;99.90;;;;;;4949040;28;20508;-90
2022/07/25 11:14:32;;;;;;;5.60;1.98;;;23.70;99.90;;;;;;4933598;28;20069;-90
2022/07/25 11:17:21;;;;;;;6.57;2.13;;;23.80;99.90;;;;;;4949607;28;20050;-90
2022/07/25 11:19:59;;;;;;;6.88;2.20;;;23.80;99.90;;;;;;4963503;28;20640;-88
2022/07/25 11:22:26;;;;;;;6.07;2.28;;;24.00;99.90;;;;;;4961528;28;20110;-86
2022/07/25 11:24:52;;;;;;;7.72;2.35;;;24.10;99.90;;;;;;4926845;28;20606;-88
2022/07/25 11:27:22;;;;;;;6.70;2.65;;;24.20;99.90;;;;;;4950306;28;20035;-87
2022/07/25 11:29:49;;;;;;;8.48;2.72;;;24.40;99.90;;;;;;4949238;28;20632;-88
2022/07/25 11:32:15;;;;;;;9.00;2.85;;;24.50;99.90;;;;;;4952099;28;20153;-86
2022/07/25 11:34:45;;;;;;;8.45;2.40;;;24.30;99.90;;;;;;4934338;28;20342;-86
2022/07/25 11:37:12;;;;;;;8.05;2.60;;;24.20;99.90;;;;;;4967307;28;20113;-86
2022/07/25 11:39:41;;;;;;;7.53;2.40;;;24.10;99.90;;;;;;4934543;28;20512;-87
2022/07/25 11:42:08;;;;;;;7.47;2.33;;;23.90;99.90;;;;;;4967219;28;20035;-88
2022/07/25 11:44:43;;;;;;;9.60;2.80;;;23.80;99.90;;;;;;4948877;28;20039;-88
2022/07/25 11:47:21;;;;;;;8.50;2.30;;;23.80;99.90;;;;;;4968032;28;20491;-89
2022/07/25 11:49:49;;;;;;;8.05;2.50;;;23.80;99.90;;;;;;4953498;28;20041;-87
2022/07/25 11:52:28;;;;;;;7.78;2.28;;;23.80;99.90;;;;;;4950925;28;20053;-88
2022/07/25 11:55:09;;;;;;;6.93;2.35;;;24.00;99.90;;;;;;4967533;28;20051;-91
2022/07/25 11:57:45;;;;;;;8.15;2.10;;;24.10;99.90;;;;;;4962733;28;20042;-89
2022/07/25 12:00:23;;;;;;;10.35;2.92;;;24.30;99.90;;;;;;4947562;28;20504;-89
2022/07/25 12:02:48;;;;;;;8.20;2.60;;;24.40;99.90;;;;;;4950379;28;20038;-88
2022/07/25 12:05:20;;;;;;;11.30;3.00;;;24.40;99.90;;;;;;4951119;28;20034;-89
2022/07/25 12:07:53;;;;;;;7.22;2.30;;;24.40;99.90;;;;;;4950986;28;20047;-88
2022/07/25 12:10:31;;;;;;;8.32;2.55;;;24.30;99.90;;;;;;4950208;28;20518;-87
2022/07/25 12:13:00;;;;;;;9.45;2.60;;;24.10;99.90;;;;;;4967468;28;20050;-87
2022/07/25 12:15:37;;;;;;;7.72;2.28;;;23.90;99.90;;;;;;4935029;28;20121;-87
2022/07/25 12:18:05;;;;;;;8.07;2.25;;;23.70;99.90;;;;;;4948282;28;20042;-87
2022/07/25 12:20:39;;;;;;;9.65;2.38;;;23.60;99.90;;;;;;4951101;28;20404;-86
2022/07/25 12:23:08;;;;;;;10.20;2.83;;;23.60;99.90;;;;;;4966243;28;20047;-86
2022/07/25 12:25:39;;;;;;;8.25;2.53;;;23.60;99.90;;;;;;4952485;28;20043;-86
2022/07/25 12:28:05;;;;;;;9.05;2.30;;;23.60;99.90;;;;;;4953846;28;20113;-85
2022/07/25 12:30:31;;;;;;;8.65;2.53;;;23.60;99.90;;;;;;4953354;28;20039;-86
2022/07/25 12:32:58;;;;;;;8.55;2.40;;;23.90;99.90;;;;;;4967888;28;20050;-87
2022/07/25 12:35:24;;;;;;;7.15;2.38;;;24.30;99.90;;;;;;4953499;28;20046;-86
2022/07/25 12:37:50;;;;;;;8.85;2.40;;;24.50;99.90;;;;;;4968222;28;20073;-86
2022/07/25 12:40:16;;;;;;;12.32;2.50;;;24.40;99.90;;;;;;4956300;28;20415;-86
2022/07/25 12:42:43;;;;;;;11.13;2.55;;;24.40;99.90;;;;;;4970978;28;20133;-88
2022/07/25 12:45:10;;;;;;;7.55;2.00;;;24.40;99.90;;;;;;4939317;28;20085;-87